Time;durP1;ratioP1;P1;durP2;ratioP2;P2;SDS_P1;SDS_P2;PMS_P1;PMS_P2;Temp;Humidity;BMP_temperature;BMP_pressure;BME280_temperature;BME280_humidity;BME280_pressure;Samples;Min_cycle;Max_cycle;Signal;HPM_P1;HPM_P2
2022/07/17 00:02:26;;;;;;;2.78;2.67;;;18.10;99.90;;;18.56;70.19;102627.31;5058899;28;20037;-63
2022/07/17 00:04:54;;;;;;;2.92;2.83;;;18.10;99.90;;;18.51;70.77;102627.34;5057748;28;20045;-62
2022/07/17 00:07:23;;;;;;;2.50;2.40;;;18.10;99.90;;;18.39;70.26;102626.53;5059381;28;20047;-62
2022/07/17 00:09:53;;;;;;;2.85;2.75;;;18.00;99.90;;;18.36;70.15;102630.13;5058852;28;20112;-62
2022/07/17 00:12:22;;;;;;;3.15;3.05;;;18.00;99.90;;;17.64;69.18;102512.84;5056402;28;20069;-62
2022/07/17 00:14:51;;;;;;;2.60;2.50;;;17.90;99.90;;;18.19;69.01;102637.41;5054664;28;20048;-62
2022/07/17 00:17:21;;;;;;;2.58;2.47;;;17.80;99.90;;;18.16;68.90;102641.88;5055974;28;20119;-62
2022/07/17 00:19:49;;;;;;;3.22;3.13;;;17.80;99.90;;;18.18;68.80;102646.31;5054750;28;20395;-62
2022/07/17 00:22:18;;;;;;;2.70;2.60;;;17.80;99.90;;;18.18;69.25;102630.25;5055566;28;20083;-62
2022/07/17 00:24:46;;;;;;;2.72;2.63;;;17.80;99.90;;;18.22;70.19;102623.97;5055402;28;20071;-62
2022/07/17 00:27:16;;;;;;;3.28;3.17;;;17.80;99.90;;;18.19;71.33;102631.16;5055368;28;20039;-62
2022/07/17 00:29:45;;;;;;;3.45;3.30;;;17.80;99.90;;;18.23;71.87;102624.88;5054463;28;20099;-62
2022/07/17 00:32:13;;;;;;;2.65;2.55;;;17.80;99.90;;;18.30;72.07;102623.91;5056199;28;20070;-62
2022/07/17 00:34:42;;;;;;;2.80;2.70;;;17.80;99.90;;;18.25;71.36;102620.38;5055876;28;20494;-62
2022/07/17 00:37:10;;;;;;;2.70;2.60;;;17.80;99.90;;;18.20;70.92;102617.75;5055553;28;20037;-62
2022/07/17 00:39:39;;;;;;;2.33;2.22;;;17.70;99.90;;;18.14;70.09;102615.09;5055169;28;20482;-62
2022/07/17 00:42:12;;;;;;;2.72;2.63;;;17.70;99.90;;;18.01;70.15;102608.97;5055200;28;20048;-62
2022/07/17 00:44:44;;;;;;;2.75;2.65;;;17.60;99.90;;;18.04;71.63;102602.66;5055058;28;20137;-62
2022/07/17 00:47:18;;;;;;;2.70;2.60;;;17.60;99.90;;;18.00;71.14;102606.31;5055066;28;20418;-61
2022/07/17 00:49:48;;;;;;;2.95;2.85;;;17.60;99.90;;;17.79;70.68;102601.97;5055342;28;20037;-62
2022/07/17 00:52:17;;;;;;;2.65;2.55;;;17.50;99.90;;;17.71;70.95;102595.75;5055635;28;20047;-62
2022/07/17 00:54:48;;;;;;;2.63;2.53;;;17.30;99.90;;;17.70;71.37;102587.75;5054856;28;20387;-62
2022/07/17 00:57:33;;;;;;;4.15;3.83;;;17.20;99.90;;;17.40;73.39;102577.19;5054914;28;20049;-62
2022/07/17 01:00:06;;;;;;;3.28;3.13;;;17.00;99.90;;;17.00;73.04;102579.13;5054961;28;20495;-62
2022/07/17 01:02:35;;;;;;;3.72;3.55;;;16.60;99.90;;;16.91;74.41;102577.38;5055100;28;20057;-62
2022/07/17 01:05:05;;;;;;;2.90;2.80;;;16.40;99.90;;;17.06;74.52;102568.41;5053669;28;20048;-62
2022/07/17 01:07:34;;;;;;;2.70;2.60;;;16.50;99.90;;;17.26;74.43;102581.72;5055385;28;20048;-62
2022/07/17 01:10:02;;;;;;;2.65;2.55;;;16.70;99.90;;;17.34;73.26;102586.13;5054620;28;20044;-62
2022/07/17 01:12:33;;;;;;;3.03;2.92;;;16.80;99.90;;;17.17;73.26;102584.44;5054660;28;20048;-62
2022/07/17 01:15:05;;;;;;;3.10;3.00;;;16.60;99.90;;;17.21;74.08;102586.19;5054698;28;20076;-62
2022/07/17 01:17:33;;;;;;;3.10;3.00;;;16.70;99.90;;;17.38;74.13;102589.69;5054788;28;20131;-62
2022/07/17 01:20:03;;;;;;;2.97;2.88;;;16.80;99.90;;;17.49;73.35;102604.81;5054555;28;20578;-62
2022/07/17 01:22:34;;;;;;;2.90;2.80;;;17.00;99.90;;;17.61;72.13;102603.88;5053535;28;20136;-62
2022/07/17 01:25:03;;;;;;;2.88;2.78;;;17.20;99.90;;;17.72;71.42;102596.66;5054296;28;20102;-62
2022/07/17 01:27:32;;;;;;;2.85;2.75;;;17.30;99.90;;;17.86;71.18;102593.00;5054683;28;20362;-62
2022/07/17 01:30:00;;;;;;;2.67;2.58;;;17.40;99.90;;;17.79;71.34;102601.97;5054753;28;20048;-62
2022/07/17 01:32:33;;;;;;;2.88;2.78;;;17.40;99.90;;;17.51;71.97;102583.41;5053515;28;20048;-62
2022/07/17 01:35:02;;;;;;;3.00;2.90;;;17.10;99.90;;;17.49;71.62;102587.88;5054214;28;20124;-62
2022/07/17 01:37:30;;;;;;;3.05;2.95;;;17.10;99.90;;;17.55;71.68;102587.84;5054163;28;20071;-62
2022/07/17 01:40:00;;;;;;;2.50;2.40;;;17.10;99.90;;;17.63;72.59;102584.25;5054929;28;20037;-62
2022/07/17 01:42:29;;;;;;;3.28;3.17;;;17.20;99.90;;;17.65;71.47;102586.91;5054106;28;20091;-62
2022/07/17 01:44:58;;;;;;;2.97;2.88;;;17.30;99.90;;;17.63;71.39;102584.25;5053943;28;20128;-62
2022/07/17 01:47:26;;;;;;;3.00;2.90;;;17.20;99.90;;;17.62;71.21;102585.13;5053979;28;20128;-62
2022/07/17 01:49:57;;;;;;;3.10;3.00;;;17.20;99.90;;;17.65;71.22;102585.09;5053927;28;20481;-62
2022/07/17 01:52:27;;;;;;;2.90;2.80;;;17.30;99.90;;;17.78;70.96;102575.19;5054159;28;20068;-62
2022/07/17 01:54:55;;;;;;;2.70;2.60;;;17.40;99.90;;;17.87;70.67;102585.84;5054246;28;20483;-62
2022/07/17 01:57:26;;;;;;;2.67;2.58;;;17.40;99.90;;;17.98;70.31;102587.53;5054045;28;20091;-62
2022/07/17 01:59:55;;;;;;;3.08;2.97;;;17.60;99.90;;;17.96;70.02;102581.31;5053830;28;20045;-62
2022/07/17 02:02:23;;;;;;;3.08;2.97;;;17.60;99.90;;;18.02;70.04;102586.63;5054020;28;20135;-62
2022/07/17 02:04:51;;;;;;;3.00;2.90;;;17.60;99.90;;;18.09;69.83;102576.75;5053712;28;20049;-62
2022/07/17 02:07:20;;;;;;;2.90;2.80;;;17.70;99.90;;;18.24;69.02;102573.06;5053545;28;20041;-62
2022/07/17 02:09:48;;;;;;;3.25;3.15;;;17.80;99.90;;;18.30;68.82;102579.25;5054131;28;20103;-62
2022/07/17 02:12:16;;;;;;;3.05;2.95;;;17.90;99.90;;;18.36;68.62;102587.25;5053543;28;20477;-62
2022/07/17 02:14:46;;;;;;;2.70;2.60;;;18.00;99.90;;;18.41;68.57;102585.41;5053432;28;20561;-62
2022/07/17 02:17:14;;;;;;;3.17;3.08;;;18.10;99.90;;;18.36;68.35;102589.03;5053699;28;20051;-62
2022/07/17 02:19:43;;;;;;;3.00;2.90;;;18.10;99.90;;;17.98;68.08;102493.81;5053411;28;20068;-62
2022/07/17 02:22:11;;;;;;;2.72;2.63;;;18.20;99.90;;;18.55;67.99;102596.03;5053342;28;20037;-62
2022/07/17 02:24:40;;;;;;;2.92;2.83;;;18.20;99.90;;;18.52;67.78;102588.03;5053357;28;20094;-62
2022/07/17 02:27:08;;;;;;;2.65;2.55;;;18.20;99.90;;;18.51;67.91;102591.59;5053000;28;20475;-61
2022/07/17 02:29:36;;;;;;;2.90;2.80;;;18.20;99.90;;;18.56;68.11;102596.00;5053870;28;20052;-61
2022/07/17 02:32:07;;;;;;;3.20;3.10;;;18.20;99.90;;;18.64;67.75;102604.00;5053234;28;20469;-61
2022/07/17 02:34:35;;;;;;;3.10;3.00;;;18.20;99.90;;;18.38;67.49;102577.41;5052050;28;20052;-61
2022/07/17 02:37:04;;;;;;;2.95;2.85;;;18.20;99.90;;;18.53;67.76;102619.28;5053004;28;20048;-62
2022/07/17 02:39:32;;;;;;;2.80;2.70;;;18.20;99.90;;;18.49;68.07;102623.78;5053196;28;20182;-61
2022/07/17 02:42:00;;;;;;;2.75;2.65;;;18.10;99.90;;;18.54;67.96;102632.66;5053417;28;20045;-61
2022/07/17 02:44:29;;;;;;;2.80;2.70;;;18.10;99.90;;;18.58;68.05;102625.50;5052144;28;20471;-62
2022/07/17 02:46:57;;;;;;;2.80;2.70;;;18.20;99.90;;;18.68;69.20;102617.34;5053276;28;20037;-62
2022/07/17 02:49:27;;;;;;;2.72;2.63;;;18.20;99.90;;;18.64;68.58;102618.28;5052050;28;20041;-62
2022/07/17 02:51:56;;;;;;;3.05;2.95;;;18.20;99.90;;;18.66;68.85;102623.66;5052058;28;20505;-61
2022/07/17 02:54:24;;;;;;;3.00;2.90;;;18.30;99.90;;;18.56;69.24;102617.44;5053010;28;20144;-61
2022/07/17 02:56:52;;;;;;;2.75;2.65;;;18.20;99.90;;;18.58;69.46;102599.56;5052856;28;20094;-61
2022/07/17 02:59:21;;;;;;;2.70;2.60;;;18.30;99.90;;;18.70;70.23;102618.22;5053046;28;20482;-61
2022/07/17 03:01:49;;;;;;;3.05;2.95;;;18.30;99.90;;;18.67;70.35;102615.56;5052879;28;20163;-62
2022/07/17 03:04:17;;;;;;;3.05;2.95;;;18.30;99.90;;;18.53;70.86;102616.59;5053615;28;20048;-62
2022/07/17 03:06:47;;;;;;;2.60;2.50;;;18.20;99.90;;;18.54;70.56;102613.88;5051781;28;20049;-62
2022/07/17 03:09:19;;;;;;;7.63;4.22;;;18.10;99.90;;;18.81;68.93;102616.31;5053158;28;20049;-61
2022/07/17 03:11:47;;;;;;;2.67;2.58;;;18.40;99.90;;;18.67;69.05;102617.34;5053048;28;20132;-62
2022/07/17 03:14:16;;;;;;;2.55;2.45;;;18.30;99.90;;;18.29;69.34;102623.00;5051775;28;20052;-61
2022/07/17 03:16:44;;;;;;;3.03;2.92;;;18.00;99.90;;;18.15;69.37;102619.56;5053068;28;20063;-62
2022/07/17 03:19:13;;;;;;;3.00;2.90;;;17.80;99.90;;;18.03;69.76;102627.69;5053313;28;20033;-61
2022/07/17 03:21:41;;;;;;;2.42;2.33;;;17.60;99.90;;;17.91;70.15;102619.72;5051748;28;20136;-62
2022/07/17 03:24:11;;;;;;;2.47;2.38;;;17.60;99.90;;;18.03;71.69;102622.34;5051438;28;20059;-62
2022/07/17 03:26:39;;;;;;;2.63;2.53;;;17.60;99.90;;;18.00;72.21;102617.88;5052646;28;20037;-61
2022/07/17 03:29:08;;;;;;;2.78;2.67;;;17.60;99.90;;;18.13;72.56;102621.38;5052928;28;20053;-62
2022/07/17 03:31:36;;;;;;;2.75;2.65;;;17.70;99.90;;;18.16;72.49;102613.28;5052615;28;20033;-61
2022/07/17 03:34:05;;;;;;;2.80;2.70;;;17.70;99.90;;;18.29;71.24;102617.66;5052602;28;20041;-61
2022/07/17 03:36:33;;;;;;;2.47;2.38;;;17.80;99.90;;;18.16;70.73;102602.59;5053164;28;20051;-61
2022/07/17 03:39:01;;;;;;;2.55;2.45;;;17.80;99.90;;;17.96;69.73;102594.69;5052521;28;20487;-62
2022/07/17 03:41:31;;;;;;;2.90;2.80;;;17.70;99.90;;;17.91;70.11;102607.25;5051565;28;20053;-62
2022/07/17 03:44:00;;;;;;;2.77;2.67;;;17.60;99.90;;;18.01;70.11;102610.75;5053120;28;20442;-62
2022/07/17 03:46:28;;;;;;;2.90;2.80;;;17.60;99.90;;;17.99;70.11;102607.19;5068175;28;20296;-62
2022/07/17 03:48:57;;;;;;;3.22;3.13;;;17.60;99.90;;;18.03;69.58;102593.78;5055866;28;20552;-62
2022/07/17 03:51:25;;;;;;;3.08;2.97;;;17.70;99.90;;;17.80;70.02;102602.84;5056748;28;20037;-62
2022/07/17 03:53:54;;;;;;;3.00;2.90;;;17.50;99.90;;;17.65;70.59;102605.63;5056184;28;20483;-61
2022/07/17 03:56:24;;;;;;;2.70;2.60;;;17.30;99.90;;;17.76;70.75;102603.78;5056488;28;20048;-61
2022/07/17 03:58:54;;;;;;;3.05;2.95;;;17.30;99.90;;;17.68;70.95;102621.66;5055238;28;20045;-61
2022/07/17 04:01:22;;;;;;;2.47;2.38;;;17.30;99.90;;;17.53;70.90;102617.28;5056392;28;20041;-61
2022/07/17 04:03:51;;;;;;;2.70;2.60;;;17.30;99.90;;;17.64;71.22;102635.94;5056303;28;20090;-61
2022/07/17 04:06:19;;;;;;;2.80;2.70;;;17.20;99.90;;;17.54;71.36;102636.88;5056155;28;20037;-62
2022/07/17 04:08:48;;;;;;;3.55;3.45;;;17.20;99.90;;;17.60;71.96;102639.53;5056408;28;20053;-62
2022/07/17 04:11:16;;;;;;;2.80;2.70;;;17.20;99.90;;;17.56;72.68;102636.00;5055865;28;20510;-62
2022/07/17 04:13:48;;;;;;;2.50;2.40;;;17.20;99.90;;;17.52;74.84;102634.22;5055872;28;20088;-61
2022/07/17 04:16:17;;;;;;;2.63;2.53;;;17.10;99.90;;;17.46;73.62;102614.63;5056094;28;20045;-61
2022/07/17 04:18:46;;;;;;;3.53;3.43;;;17.10;99.90;;;17.48;72.44;102616.41;5056346;28;20045;-61
2022/07/17 04:21:14;;;;;;;3.00;2.90;;;17.10;99.90;;;17.44;72.15;102624.44;5055667;28;20115;-61
2022/07/17 04:23:42;;;;;;;3.33;3.22;;;17.00;99.90;;;17.69;71.65;102634.16;5054690;28;20094;-61
2022/07/17 04:26:11;;;;;;;2.78;2.67;;;17.20;99.90;;;17.77;71.29;102626.94;5055658;28;20083;-62
2022/07/17 04:28:40;;;;;;;2.83;2.72;;;17.30;99.90;;;17.78;70.87;102629.66;5054507;28;20544;-61
2022/07/17 04:31:09;;;;;;;2.70;2.60;;;17.40;99.90;;;17.95;70.46;102633.09;5055430;28;20041;-62
2022/07/17 04:33:39;;;;;;;2.70;2.60;;;17.50;99.90;;;18.03;70.38;102630.38;5055635;28;20087;-61
2022/07/17 04:36:10;;;;;;;3.00;2.90;;;17.60;99.90;;;17.41;69.85;102533.47;5055456;28;20040;-62
2022/07/17 04:38:38;;;;;;;3.10;3.00;;;17.70;99.90;;;17.84;69.72;102629.63;5055394;28;20037;-62
2022/07/17 04:41:07;;;;;;;2.60;2.50;;;17.60;99.90;;;17.91;69.54;102633.13;5055586;28;20053;-61
2022/07/17 04:43:35;;;;;;;3.05;2.95;;;17.60;99.90;;;17.90;69.22;102636.72;5055294;28;20640;-62
2022/07/17 04:46:03;;;;;;;2.80;2.70;;;17.60;99.90;;;17.86;68.89;102624.25;5055206;28;20045;-62
2022/07/17 04:48:32;;;;;;;3.22;3.13;;;17.50;99.90;;;17.71;69.31;102621.66;5055332;28;20445;-61
2022/07/17 04:51:01;;;;;;;2.88;2.78;;;17.40;99.90;;;17.45;70.08;102610.16;5055140;28;20446;-62
2022/07/17 04:53:30;;;;;;;3.13;3.03;;;17.20;99.90;;;17.54;70.30;102628.88;5053961;28;20469;-61
2022/07/17 04:55:59;;;;;;;3.25;3.15;;;17.20;99.90;;;17.59;70.67;102622.63;5055078;28;20467;-61
2022/07/17 04:58:27;;;;;;;3.33;3.13;;;17.10;99.90;;;17.38;70.70;102616.44;5054521;28;20410;-61
2022/07/17 05:00:55;;;;;;;2.85;2.75;;;17.00;99.90;;;17.52;71.35;102622.63;5055147;28;20091;-62
2022/07/17 05:03:24;;;;;;;2.95;2.85;;;17.10;99.90;;;17.57;70.84;102619.06;5054938;28;20048;-62
2022/07/17 05:05:52;;;;;;;3.30;3.20;;;17.20;99.90;;;17.42;71.18;102621.75;5054903;28;20439;-61
2022/07/17 05:08:22;;;;;;;2.80;2.70;;;17.10;99.90;;;17.48;72.04;102613.72;5054742;28;20123;-61
2022/07/17 05:10:50;;;;;;;3.15;3.05;;;17.10;99.90;;;17.44;72.75;102619.09;5055085;28;20128;-62
2022/07/17 05:13:19;;;;;;;3.30;3.20;;;17.00;99.90;;;17.50;72.13;102619.09;5054889;28;20392;-61
2022/07/17 05:15:48;;;;;;;3.20;3.10;;;17.00;99.90;;;17.00;73.17;102609.44;5054641;28;20063;-62
2022/07/17 05:18:17;;;;;;;2.80;2.70;;;16.70;99.90;;;16.88;72.53;102619.25;5054951;28;20110;-62
2022/07/17 05:20:46;;;;;;;3.10;3.00;;;16.50;99.90;;;16.78;73.54;102622.88;5053532;28;20069;-62
2022/07/17 05:23:14;;;;;;;2.80;2.70;;;16.30;99.90;;;16.82;74.70;102619.31;5053725;28;20149;-61
2022/07/17 05:25:44;;;;;;;2.90;2.80;;;16.30;99.90;;;17.25;74.52;102630.78;5054730;28;20483;-62
2022/07/17 05:28:13;;;;;;;2.90;2.80;;;16.70;99.90;;;17.39;73.43;102623.56;5054649;28;20091;-62
2022/07/17 05:30:41;;;;;;;2.80;2.70;;;16.90;99.90;;;17.48;74.18;102621.75;5054427;28;20044;-62
2022/07/17 05:33:09;;;;;;;3.10;3.00;;;17.00;99.90;;;17.45;72.69;102620.84;5054855;28;20122;-62
2022/07/17 05:35:38;;;;;;;2.92;2.83;;;17.00;99.90;;;17.82;72.36;102623.38;5054270;28;20124;-61
2022/07/17 05:38:06;;;;;;;2.97;2.88;;;17.40;99.90;;;17.86;71.48;102640.31;5054763;28;20048;-62
2022/07/17 05:40:35;;;;;;;3.25;3.15;;;17.50;99.90;;;17.28;71.69;102516.63;5053199;28;20078;-62
2022/07/17 05:43:04;;;;;;;2.75;2.65;;;17.50;99.90;;;18.19;72.29;102628.47;5054381;28;20045;-62
2022/07/17 05:45:33;;;;;;;2.88;2.78;;;17.70;99.90;;;18.24;71.49;102629.31;5054117;28;20037;-62
2022/07/17 05:48:01;;;;;;;2.83;2.72;;;17.80;99.90;;;18.56;70.71;102646.94;5054144;28;20033;-62
2022/07/17 05:50:30;;;;;;;2.70;2.60;;;18.10;99.90;;;18.84;70.16;102645.78;5053867;28;20041;-62
2022/07/17 05:52:58;;;;;;;2.90;2.80;;;18.50;99.90;;;18.82;68.15;102647.59;5053966;28;20048;-62
2022/07/17 05:55:27;;;;;;;2.85;2.75;;;18.50;99.90;;;18.19;68.57;102540.97;5054185;28;20107;-62
2022/07/17 05:57:55;;;;;;;2.90;2.80;;;18.50;99.90;;;18.81;68.63;102645.81;5053928;28;20441;-62
2022/07/17 06:00:25;;;;;;;2.80;2.70;;;18.40;99.90;;;18.54;68.06;102611.22;5052701;28;20099;-62
2022/07/17 06:02:53;;;;;;;2.50;2.40;;;18.30;99.90;;;18.79;69.05;102636.88;5054039;28;20609;-62
2022/07/17 06:05:21;;;;;;;2.67;2.58;;;18.40;99.90;;;19.14;68.51;102658.00;5053714;28;20096;-62
2022/07/17 06:07:50;;;;;;;2.67;2.58;;;18.60;99.90;;;19.30;66.73;102659.56;5052461;28;20087;-62
2022/07/17 06:10:18;;;;;;;4.43;4.13;;;18.90;99.90;;;19.33;65.99;102656.00;5053615;28;20072;-62
2022/07/17 06:12:47;;;;;;;2.90;2.80;;;19.00;99.90;;;19.09;65.47;102664.28;5054126;28;20128;-62
2022/07/17 06:15:15;;;;;;;3.00;2.90;;;18.80;99.90;;;18.84;67.33;102666.34;5086093;28;20494;-61
2022/07/17 06:17:45;;;;;;;2.83;2.72;;;18.50;99.90;;;18.99;67.37;102659.97;5053524;28;20041;-62
2022/07/17 06:20:15;;;;;;;2.70;2.60;;;18.50;99.90;;;19.35;67.49;102671.22;5053348;28;20051;-62
2022/07/17 06:22:45;;;;;;;2.78;2.67;;;18.80;99.90;;;19.71;66.68;102677.91;5053431;28;20040;-64
2022/07/17 06:25:14;;;;;;;10.02;8.93;;;19.20;99.90;;;19.79;64.81;102674.22;5053603;28;20048;-62
2022/07/17 06:27:43;;;;;;;2.80;2.70;;;19.50;99.90;;;19.77;63.10;102678.72;5053251;28;20044;-62
2022/07/17 06:30:15;;;;;;;2.75;2.65;;;19.50;99.90;;;19.58;62.62;102663.75;5053284;28;20076;-62
2022/07/17 06:32:45;;;;;;;2.55;2.45;;;19.50;99.90;;;19.83;62.34;102679.53;5053328;28;20127;-62
2022/07/17 06:35:14;;;;;;;2.50;2.40;;;19.50;99.90;;;20.02;63.58;102683.72;5053185;28;20045;-62
2022/07/17 06:37:42;;;;;;;2.55;2.45;;;19.60;99.90;;;19.76;62.71;102673.38;5053346;28;20045;-62
2022/07/17 06:40:11;;;;;;;2.92;2.83;;;19.50;99.90;;;19.94;63.04;102683.84;5053085;28;20041;-62
2022/07/17 06:42:39;;;;;;;2.60;2.50;;;19.60;99.90;;;19.89;61.69;102701.84;5053321;28;20041;-62
2022/07/17 06:45:09;;;;;;;2.50;2.40;;;19.50;99.90;;;20.10;61.38;102698.84;5051939;28;20563;-62
2022/07/17 06:47:39;;;;;;;2.67;2.58;;;19.60;99.90;;;20.10;62.43;102687.19;5053252;28;20037;-62
2022/07/17 06:50:10;;;;;;;2.65;2.55;;;19.70;99.90;;;20.24;62.29;102706.75;5051893;28;20037;-62
2022/07/17 06:52:38;;;;;;;2.55;2.45;;;19.80;99.90;;;19.85;62.23;102686.66;5052946;28;20044;-62
2022/07/17 06:55:14;;;;;;;2.50;2.40;;;19.60;99.90;;;19.71;62.19;102635.81;5051847;28;20071;-62
2022/07/17 06:57:42;;;;;;;2.80;2.70;;;19.80;99.90;;;20.46;62.68;102701.00;5052912;28;20045;-62
2022/07/17 07:00:11;;;;;;;2.85;2.70;;;20.10;99.90;;;19.88;61.56;102701.88;5052841;28;20049;-62
2022/07/17 07:02:40;;;;;;;2.50;2.40;;;19.60;99.90;;;19.97;62.17;102697.25;5052865;28;20068;-64
2022/07/17 07:05:10;;;;;;;2.72;2.63;;;19.60;99.90;;;20.05;61.94;102703.41;5053053;28;20414;-64
2022/07/17 07:07:39;;;;;;;2.78;2.67;;;19.70;99.90;;;19.87;63.19;102702.75;5052900;28;20041;-64
2022/07/17 07:10:08;;;;;;;3.00;2.90;;;19.40;99.90;;;20.07;62.89;102706.06;5052874;28;20131;-64
2022/07/17 07:12:37;;;;;;;2.77;2.67;;;19.60;99.90;;;20.15;62.13;102694.28;5052804;28;20094;-64
2022/07/17 07:15:07;;;;;;;3.08;2.97;;;19.70;99.90;;;20.25;61.45;102700.44;5052977;28;20091;-64
2022/07/17 07:17:41;;;;;;;2.50;2.40;;;19.80;99.90;;;20.62;61.67;102707.91;5052935;28;20044;-66
2022/07/17 07:20:12;;;;;;;3.03;2.92;;;20.20;99.90;;;20.49;60.75;102703.66;5052741;28;20099;-64
2022/07/17 07:22:41;;;;;;;2.88;2.78;;;20.00;99.90;;;20.18;60.55;102704.09;5056256;28;20045;-64
2022/07/17 07:25:10;;;;;;;2.60;2.50;;;19.80;99.90;;;19.81;62.42;102698.34;5056743;28;20120;-67
2022/07/17 07:27:38;;;;;;;2.88;2.78;;;19.50;99.90;;;19.89;62.96;102680.34;5055617;28;20121;-64
2022/07/17 07:30:10;;;;;;;2.92;2.83;;;19.60;99.90;;;20.50;61.76;102697.34;5056746;28;20064;-64
2022/07/17 07:32:39;;;;;;;3.13;3.03;;;20.00;99.90;;;20.73;60.63;102693.41;5055490;28;20073;-64
2022/07/17 07:35:09;;;;;;;2.75;2.65;;;20.30;99.90;;;20.63;58.82;102690.00;5056747;28;20469;-63
2022/07/17 07:37:39;;;;;;;2.90;2.80;;;20.40;99.90;;;20.63;59.08;102690.00;5056578;28;20087;-64
2022/07/17 07:40:08;;;;;;;2.85;2.75;;;20.20;99.90;;;21.03;58.23;102692.88;5055454;28;20060;-64
2022/07/17 07:42:37;;;;;;;3.28;3.17;;;20.50;99.90;;;20.80;58.43;102687.00;5055378;28;20456;-64
2022/07/17 07:45:07;;;;;;;2.97;2.88;;;20.50;99.90;;;20.65;58.70;102685.47;5055385;28;20076;-64
2022/07/17 07:47:43;;;;;;;2.88;2.78;;;20.30;99.90;;;21.02;57.71;102683.91;5056218;28;20494;-64
2022/07/17 07:50:12;;;;;;;2.72;2.63;;;20.50;99.90;;;20.85;56.93;102677.91;5056230;28;20060;-65
2022/07/17 07:52:43;;;;;;;3.67;3.47;;;20.50;99.90;;;20.35;57.01;102659.06;5056517;28;20131;-64
2022/07/17 07:55:13;;;;;;;3.47;3.17;;;20.20;99.90;;;20.50;58.67;102681.22;5055929;28;20060;-62
2022/07/17 07:57:48;;;;;;;2.90;2.80;;;20.00;99.90;;;20.62;58.71;102683.72;5056376;28;20051;-63
2022/07/17 08:00:17;;;;;;;3.00;2.90;;;20.20;99.90;;;20.82;58.98;102687.84;5056005;28;20120;-62
2022/07/17 08:02:46;;;;;;;2.70;2.60;;;20.30;99.90;;;20.75;58.66;102686.19;5056539;28;20084;-63
2022/07/17 08:05:14;;;;;;;2.72;2.63;;;20.40;99.90;;;20.96;58.12;102686.72;5055865;28;20044;-63
2022/07/17 08:07:44;;;;;;;2.90;2.80;;;20.50;99.90;;;20.94;58.50;102674.19;5055943;28;20044;-63
2022/07/17 08:15:00;;;;;;;3.30;3.20;;;20.70;99.90;;;21.14;58.31;102682.78;5033854;28;20627;-62
2022/07/17 08:17:28;;;;;;;3.10;3.00;;;20.70;99.90;;;21.14;58.81;102681.00;5046054;28;20053;-66
2022/07/17 08:19:56;;;;;;;3.00;2.90;;;20.70;99.90;;;21.43;58.90;102699.28;5055665;28;20041;-66
2022/07/17 08:22:25;;;;;;;3.13;3.03;;;20.90;99.90;;;21.62;57.10;102668.38;5055996;28;20099;-66
2022/07/17 08:25:15;;;;;;;3.30;3.10;;;21.30;99.90;;;21.40;54.93;102683.19;5055646;28;20092;-66
2022/07/17 08:27:44;;;;;;;;;;;21.10;99.90;;;21.46;55.23;102686.66;5055893;28;20047;-65
2022/07/17 08:30:15;;;;;;;3.70;3.50;;;21.00;99.90;;;21.23;55.50;102631.50;5055716;28;19927;-66
2022/07/17 08:32:44;;;;;;;;;;;21.10;99.90;;;21.72;54.20;102688.78;5055140;28;20116;-65
2022/07/17 08:35:12;;;;;;;2.80;2.70;;;21.20;99.90;;;21.92;52.64;102681.19;5054333;28;20074;-64
2022/07/17 08:37:46;;;;;;;2.88;2.78;;;21.50;99.90;;;21.97;52.41;102668.50;5055135;28;20045;-65
2022/07/17 08:40:24;;;;;;;3.05;2.92;;;21.70;99.90;;;22.13;52.06;102683.41;5054243;28;20057;-67
2022/07/17 08:42:54;;;;;;;3.92;3.63;;;21.80;99.90;;;22.16;51.38;102683.31;5055398;28;20528;-63
2022/07/17 08:45:23;;;;;;;3.13;3.03;;;21.80;99.90;;;22.18;49.67;102681.47;5055338;28;20411;-62
2022/07/17 08:47:54;;;;;;;3.22;3.13;;;21.80;99.90;;;22.52;49.44;102683.34;5055021;28;20295;-64
2022/07/17 08:50:24;;;;;;;;;;;22.10;99.90;;;22.74;48.85;102674.75;5055883;28;20072;-63
2022/07/17 08:52:53;;;;;;;2.90;2.80;;;22.30;99.90;;;22.67;49.10;102667.72;5055023;28;19967;-63
2022/07/17 08:55:23;;;;;;;3.10;3.00;;;22.40;99.90;;;22.51;50.34;102673.50;5055100;28;20848;-60
2022/07/17 08:57:51;;;;;;;7.77;2.93;;;22.20;99.90;;;22.68;49.76;102674.00;5055243;28;20057;-63
2022/07/17 09:00:22;;;;;;;2.78;2.67;;;22.20;99.90;;;22.74;51.21;102671.16;5054754;28;20072;-62
2022/07/17 09:02:56;;;;;;;2.90;2.80;;;22.40;99.90;;;23.07;48.75;102679.22;5055073;28;20075;-64
2022/07/17 09:05:28;;;;;;;2.72;2.63;;;22.70;99.90;;;23.24;48.83;102684.16;5055178;28;20458;-65
2022/07/17 09:07:57;;;;;;;2.90;2.80;;;22.90;99.90;;;23.12;49.23;102673.69;5053878;28;20050;-62
2022/07/17 09:10:36;;;;;;;2.80;2.70;;;22.80;99.90;;;22.97;49.37;102672.31;5054637;28;20459;-61
2022/07/17 09:13:17;;;;;;;2.60;2.50;;;22.70;99.90;;;23.37;48.90;102679.31;5055013;28;20048;-65
2022/07/17 09:15:46;;;;;;;2.58;2.47;;;22.90;99.90;;;23.20;47.50;102680.69;5070080;28;20049;-60
2022/07/17 09:18:15;;;;;;;2.80;2.70;;;22.90;99.90;;;23.11;49.01;102682.75;5054297;28;20037;-61
2022/07/17 09:20:50;;;;;;;2.55;2.45;;;22.80;99.90;;;22.56;47.87;102672.47;5054827;28;20041;-59
2022/07/17 09:23:20;;;;;;;2.53;2.42;;;22.20;99.90;;;22.82;49.09;102679.94;5054271;28;20049;-59
2022/07/17 09:25:52;;;;;;;2.67;2.58;;;22.30;99.90;;;23.01;46.03;102683.91;5055514;28;20045;-59
2022/07/17 09:28:21;;;;;;;2.40;2.30;;;22.60;99.90;;;22.95;47.79;102678.69;5054202;28;20041;-61
2022/07/17 09:30:53;;;;;;;3.72;3.53;;;22.50;99.90;;;23.06;46.31;102673.88;5054069;28;20049;-65
2022/07/17 09:33:25;;;;;;;2.63;2.53;;;22.70;99.90;;;23.23;46.85;102652.66;5054447;28;20447;-64
2022/07/17 09:35:57;;;;;;;2.92;2.83;;;22.90;99.90;;;23.19;45.51;102661.78;5054605;28;20056;-68
2022/07/17 09:38:29;;;;;;;2.53;2.42;;;23.00;99.90;;;23.14;45.19;102675.44;5054195;28;20398;-63
2022/07/17 09:41:15;;;;;;;2.80;2.70;;;22.80;99.90;;;23.21;45.67;102663.53;5054256;28;20053;-64
2022/07/17 09:43:47;;;;;;;2.47;2.38;;;22.90;99.90;;;23.20;46.26;102601.47;5054458;28;20037;-64
2022/07/17 09:46:20;;;;;;;3.50;3.30;;;23.20;99.90;;;23.17;45.74;102682.59;5054424;28;20059;-62
2022/07/17 09:48:51;;;;;;;2.45;2.35;;;23.00;99.90;;;23.13;46.18;102679.06;5054194;28;20087;-63
2022/07/17 09:51:26;;;;;;;2.65;2.55;;;22.70;99.90;;;23.43;45.08;102677.34;5054102;28;20441;-63
2022/07/17 09:53:57;;;;;;;2.70;2.60;;;22.90;99.90;;;23.59;45.21;102684.09;5053377;28;20099;-63
2022/07/17 09:56:29;;;;;;;2.72;2.63;;;23.20;99.90;;;24.10;44.82;102685.22;5053944;28;20114;-62
2022/07/17 09:59:04;;;;;;;2.50;2.40;;;23.70;99.90;;;24.36;43.97;102684.41;5052954;28;20407;-62
2022/07/17 10:01:33;;;;;;;2.83;2.72;;;24.10;99.90;;;23.93;43.12;102686.63;5053807;28;20044;-62
2022/07/17 10:04:04;;;;;;;2.67;2.58;;;23.70;99.90;;;23.86;44.97;102676.97;5052741;28;20041;-62
2022/07/17 10:06:33;;;;;;;2.37;2.27;;;23.60;99.90;;;24.19;43.68;102703.00;5053863;28;20040;-65
2022/07/17 10:09:04;;;;;;;2.53;2.42;;;23.90;99.90;;;24.36;42.17;102675.38;5053610;28;20348;-62
2022/07/17 10:11:38;;;;;;;2.90;2.80;;;24.10;99.90;;;23.86;41.86;102645.41;5052770;28;20045;-65
2022/07/17 10:14:15;;;;;;;2.70;2.60;;;23.80;99.90;;;24.29;42.82;102673.81;5052586;28;20094;-61
2022/07/17 10:16:45;;;;;;;2.50;2.40;;;23.90;99.90;;;24.81;44.58;102687.41;5053615;28;20045;-61
2022/07/17 10:19:19;;;;;;;2.60;2.50;;;24.40;99.90;;;24.41;41.24;102693.25;5053510;28;20064;-62
2022/07/17 10:21:57;;;;;;;2.25;2.15;;;24.20;99.90;;;24.12;41.32;102677.94;5053761;28;20048;-61
2022/07/17 10:24:27;;;;;;;2.22;2.13;;;23.90;99.90;;;23.88;41.25;102675.09;5053919;28;20060;-61
2022/07/17 10:26:57;;;;;;;2.50;2.40;;;23.70;99.90;;;24.35;41.34;102696.13;5053848;28;20124;-60
2022/07/17 10:29:38;;;;;;;2.10;2.00;;;23.90;99.90;;;24.63;41.80;102693.41;5053662;28;20071;-61